sensor_id;sensor_type;location;lat;lon;timestamp;P1;durP1;ratioP1;P2;durP2;ratioP2
14358;SDS011;7263;49.418;11.064;2023-04-09T00:02:13;6.47;;;5.87;;
14358;SDS011;7263;49.418;11.064;2023-04-09T00:04:40;6.97;;;6.27;;
14358;SDS011;7263;49.418;11.064;2023-04-09T00:07:10;7.23;;;6.53;;
14358;SDS011;7263;49.418;11.064;2023-04-09T00:09:45;6.60;;;6.00;;
14358;SDS011;7263;49.418;11.064;2023-04-09T00:12:15;6.70;;;6.10;;
14358;SDS011;7263;49.418;11.064;2023-04-09T00:14:41;9.77;;;6.23;;
14358;SDS011;7263;49.418;11.064;2023-04-09T00:17:12;10.77;;;8.67;;
14358;SDS011;7263;49.418;11.064;2023-04-09T00:19:41;14.00;;;10.90;;
14358;SDS011;7263;49.418;11.064;2023-04-09T00:22:14;7.60;;;6.80;;
14358;SDS011;7263;49.418;11.064;2023-04-09T00:24:44;7.90;;;7.10;;
14358;SDS011;7263;49.418;11.064;2023-04-09T00:27:11;8.33;;;7.53;;
14358;SDS011;7263;49.418;11.064;2023-04-09T00:29:40;7.73;;;7.03;;
14358;SDS011;7263;49.418;11.064;2023-04-09T00:32:14;9.10;;;7.63;;
14358;SDS011;7263;49.418;11.064;2023-04-09T00:34:43;8.77;;;7.07;;
14358;SDS011;7263;49.418;11.064;2023-04-09T00:37:28;8.20;;;7.40;;
14358;SDS011;7263;49.418;11.064;2023-04-09T00:39:58;7.70;;;6.83;;
14358;SDS011;7263;49.418;11.064;2023-04-09T00:42:32;7.50;;;6.80;;
14358;SDS011;7263;49.418;11.064;2023-04-09T00:44:59;7.80;;;7.00;;
14358;SDS011;7263;49.418;11.064;2023-04-09T00:47:35;7.43;;;6.73;;
14358;SDS011;7263;49.418;11.064;2023-04-09T00:50:07;7.77;;;7.00;;
14358;SDS011;7263;49.418;11.064;2023-04-09T00:52:44;7.77;;;6.97;;
14358;SDS011;7263;49.418;11.064;2023-04-09T00:55:13;7.90;;;6.87;;
14358;SDS011;7263;49.418;11.064;2023-04-09T00:57:54;6.70;;;6.00;;
14358;SDS011;7263;49.418;11.064;2023-04-09T01:00:21;7.20;;;6.50;;
14358;SDS011;7263;49.418;11.064;2023-04-09T01:02:49;7.67;;;6.97;;
14358;SDS011;7263;49.418;11.064;2023-04-09T01:05:22;7.47;;;6.77;;
14358;SDS011;7263;49.418;11.064;2023-04-09T01:07:56;7.20;;;6.50;;
14358;SDS011;7263;49.418;11.064;2023-04-09T01:10:37;7.40;;;6.57;;
14358;SDS011;7263;49.418;11.064;2023-04-09T01:13:08;7.77;;;6.97;;
14358;SDS011;7263;49.418;11.064;2023-04-09T01:15:38;8.03;;;7.23;;
14358;SDS011;7263;49.418;11.064;2023-04-09T01:18:14;7.37;;;6.67;;
14358;SDS011;7263;49.418;11.064;2023-04-09T01:20:53;8.47;;;7.67;;
14358;SDS011;7263;49.418;11.064;2023-04-09T01:23:28;7.03;;;6.43;;
14358;SDS011;7263;49.418;11.064;2023-04-09T01:26:09;7.67;;;6.97;;
14358;SDS011;7263;49.418;11.064;2023-04-09T01:28:54;7.60;;;6.90;;
14358;SDS011;7263;49.418;11.064;2023-04-09T01:31:25;7.60;;;6.80;;
14358;SDS011;7263;49.418;11.064;2023-04-09T01:33:55;7.23;;;6.53;;
14358;SDS011;7263;49.418;11.064;2023-04-09T01:36:34;7.77;;;7.07;;
14358;SDS011;7263;49.418;11.064;2023-04-09T01:39:09;8.10;;;7.30;;
14358;SDS011;7263;49.418;11.064;2023-04-09T01:41:39;7.60;;;6.87;;
14358;SDS011;7263;49.418;11.064;2023-04-09T01:44:11;7.70;;;7.00;;
14358;SDS011;7263;49.418;11.064;2023-04-09T01:46:41;8.80;;;7.90;;
14358;SDS011;7263;49.418;11.064;2023-04-09T01:49:11;7.43;;;6.73;;
14358;SDS011;7263;49.418;11.064;2023-04-09T01:51:42;7.77;;;7.07;;
14358;SDS011;7263;49.418;11.064;2023-04-09T01:54:12;7.33;;;6.63;;
14358;SDS011;7263;49.418;11.064;2023-04-09T01:56:45;7.57;;;6.87;;
14358;SDS011;7263;49.418;11.064;2023-04-09T01:59:17;7.87;;;7.07;;
14358;SDS011;7263;49.418;11.064;2023-04-09T02:01:48;7.90;;;7.10;;
14358;SDS011;7263;49.418;11.064;2023-04-09T02:04:25;8.20;;;6.87;;
14358;SDS011;7263;49.418;11.064;2023-04-09T02:07:10;7.20;;;6.50;;
14358;SDS011;7263;49.418;11.064;2023-04-09T02:09:44;7.73;;;6.93;;
14358;SDS011;7263;49.418;11.064;2023-04-09T02:12:16;7.83;;;7.03;;
14358;SDS011;7263;49.418;11.064;2023-04-09T02:14:51;7.70;;;7.00;;
14358;SDS011;7263;49.418;11.064;2023-04-09T02:17:23;7.97;;;7.17;;
14358;SDS011;7263;49.418;11.064;2023-04-09T02:19:51;8.03;;;7.23;;
14358;SDS011;7263;49.418;11.064;2023-04-09T02:22:17;8.17;;;7.37;;
14358;SDS011;7263;49.418;11.064;2023-04-09T02:24:44;7.73;;;6.93;;
14358;SDS011;7263;49.418;11.064;2023-04-09T02:27:14;8.47;;;7.67;;
14358;SDS011;7263;49.418;11.064;2023-04-09T02:29:44;8.00;;;7.30;;
14358;SDS011;7263;49.418;11.064;2023-04-09T02:32:21;8.10;;;7.30;;
14358;SDS011;7263;49.418;11.064;2023-04-09T02:34:47;8.43;;;7.63;;
14358;SDS011;7263;49.418;11.064;2023-04-09T02:37:14;8.70;;;7.80;;
14358;SDS011;7263;49.418;11.064;2023-04-09T02:39:42;8.73;;;7.90;;
14358;SDS011;7263;49.418;11.064;2023-04-09T02:42:09;8.20;;;7.40;;
14358;SDS011;7263;49.418;11.064;2023-04-09T02:44:35;8.30;;;7.40;;
14358;SDS011;7263;49.418;11.064;2023-04-09T02:47:08;8.50;;;7.70;;
14358;SDS011;7263;49.418;11.064;2023-04-09T02:49:36;8.87;;;7.97;;
14358;SDS011;7263;49.418;11.064;2023-04-09T02:52:06;8.50;;;7.70;;
14358;SDS011;7263;49.418;11.064;2023-04-09T02:54:38;9.57;;;7.83;;
14358;SDS011;7263;49.418;11.064;2023-04-09T02:57:05;8.67;;;7.23;;
14358;SDS011;7263;49.418;11.064;2023-04-09T02:59:34;9.47;;;8.57;;
14358;SDS011;7263;49.418;11.064;2023-04-09T03:02:04;9.63;;;8.73;;
14358;SDS011;7263;49.418;11.064;2023-04-09T03:04:34;9.77;;;8.77;;
14358;SDS011;7263;49.418;11.064;2023-04-09T03:07:10;9.97;;;8.97;;
14358;SDS011;7263;49.418;11.064;2023-04-09T03:09:36;10.57;;;9.57;;
14358;SDS011;7263;49.418;11.064;2023-04-09T03:12:06;9.50;;;8.70;;
14358;SDS011;7263;49.418;11.064;2023-04-09T03:14:36;9.93;;;9.03;;
14358;SDS011;7263;49.418;11.064;2023-04-09T03:17:03;11.23;;;9.07;;
14358;SDS011;7263;49.418;11.064;2023-04-09T03:19:30;10.27;;;9.33;;
14358;SDS011;7263;49.418;11.064;2023-04-09T03:21:56;10.60;;;8.73;;
14358;SDS011;7263;49.418;11.064;2023-04-09T03:24:31;10.40;;;9.50;;
14358;SDS011;7263;49.418;11.064;2023-04-09T03:26:57;11.50;;;10.40;;
14358;SDS011;7263;49.418;11.064;2023-04-09T03:29:30;12.90;;;11.60;;
14358;SDS011;7263;49.418;11.064;2023-04-09T03:31:59;13.33;;;11.93;;
14358;SDS011;7263;49.418;11.064;2023-04-09T03:34:26;12.60;;;11.30;;
14358;SDS011;7263;49.418;11.064;2023-04-09T03:36:54;13.80;;;12.40;;
14358;SDS011;7263;49.418;11.064;2023-04-09T03:39:28;13.87;;;12.47;;
14358;SDS011;7263;49.418;11.064;2023-04-09T03:42:04;14.73;;;13.07;;
14358;SDS011;7263;49.418;11.064;2023-04-09T03:44:38;14.63;;;13.13;;
14358;SDS011;7263;49.418;11.064;2023-04-09T03:47:16;13.57;;;12.17;;
14358;SDS011;7263;49.418;11.064;2023-04-09T03:49:48;14.60;;;13.10;;
14358;SDS011;7263;49.418;11.064;2023-04-09T03:52:17;14.97;;;13.37;;
14358;SDS011;7263;49.418;11.064;2023-04-09T03:54:45;14.37;;;12.97;;
14358;SDS011;7263;49.418;11.064;2023-04-09T03:57:14;14.43;;;13.03;;
14358;SDS011;7263;49.418;11.064;2023-04-09T03:59:49;14.30;;;12.90;;
14358;SDS011;7263;49.418;11.064;2023-04-09T04:02:19;14.33;;;12.60;;
14358;SDS011;7263;49.418;11.064;2023-04-09T04:04:50;14.23;;;12.73;;
14358;SDS011;7263;49.418;11.064;2023-04-09T04:07:20;14.43;;;12.97;;
14358;SDS011;7263;49.418;11.064;2023-04-09T04:09:48;13.90;;;12.40;;
14358;SDS011;7263;49.418;11.064;2023-04-09T04:12:18;13.13;;;11.83;;
14358;SDS011;7263;49.418;11.064;2023-04-09T04:14:56;12.70;;;11.37;;
14358;SDS011;7263;49.418;11.064;2023-04-09T04:17:26;13.60;;;11.90;;
14358;SDS011;7263;49.418;11.064;2023-04-09T04:19:58;13.73;;;12.30;;
14358;SDS011;7263;49.418;11.064;2023-04-09T04:22:28;13.20;;;11.87;;
14358;SDS011;7263;49.418;11.064;2023-04-09T04:24:58;14.33;;;12.93;;
14358;SDS011;7263;49.418;11.064;2023-04-09T04:27:25;14.40;;;12.60;;
14358;SDS011;7263;49.418;11.064;2023-04-09T04:29:52;14.23;;;12.67;;
14358;SDS011;7263;49.418;11.064;2023-04-09T04:32:19;13.73;;;12.33;;
14358;SDS011;7263;49.418;11.064;2023-04-09T04:34:47;13.90;;;12.47;;
14358;SDS011;7263;49.418;11.064;2023-04-09T04:37:14;13.57;;;12.17;;
14358;SDS011;7263;49.418;11.064;2023-04-09T04:39:41;13.17;;;11.87;;
14358;SDS011;7263;49.418;11.064;2023-04-09T04:42:11;12.77;;;11.47;;
14358;SDS011;7263;49.418;11.064;2023-04-09T04:44:44;13.20;;;11.87;;
14358;SDS011;7263;49.418;11.064;2023-04-09T04:47:13;12.23;;;10.93;;
14358;SDS011;7263;49.418;11.064;2023-04-09T04:49:40;13.40;;;12.03;;
14358;SDS011;7263;49.418;11.064;2023-04-09T04:52:07;13.80;;;12.40;;
14358;SDS011;7263;49.418;11.064;2023-04-09T04:54:33;12.27;;;11.07;;
14358;SDS011;7263;49.418;11.064;2023-04-09T04:57:00;11.97;;;10.77;;
14358;SDS011;7263;49.418;11.064;2023-04-09T04:59:28;12.17;;;11.07;;
14358;SDS011;7263;49.418;11.064;2023-04-09T05:01:55;12.80;;;11.50;;
14358;SDS011;7263;49.418;11.064;2023-04-09T05:04:29;11.70;;;10.50;;
14358;SDS011;7263;49.418;11.064;2023-04-09T05:06:59;11.90;;;10.70;;
14358;SDS011;7263;49.418;11.064;2023-04-09T05:09:26;10.50;;;9.47;;
14358;SDS011;7263;49.418;11.064;2023-04-09T05:11:53;11.47;;;10.37;;
14358;SDS011;7263;49.418;11.064;2023-04-09T05:14:21;12.50;;;10.87;;
14358;SDS011;7263;49.418;11.064;2023-04-09T05:16:50;11.43;;;10.33;;
14358;SDS011;7263;49.418;11.064;2023-04-09T05:19:17;11.03;;;10.03;;
14358;SDS011;7263;49.418;11.064;2023-04-09T05:21:44;10.77;;;9.70;;
14358;SDS011;7263;49.418;11.064;2023-04-09T05:24:17;11.30;;;10.13;;
14358;SDS011;7263;49.418;11.064;2023-04-09T05:26:49;11.83;;;10.63;;
14358;SDS011;7263;49.418;11.064;2023-04-09T05:29:19;10.07;;;9.07;;
14358;SDS011;7263;49.418;11.064;2023-04-09T05:31:48;9.53;;;8.63;;
14358;SDS011;7263;49.418;11.064;2023-04-09T05:34:23;9.27;;;8.40;;
14358;SDS011;7263;49.418;11.064;2023-04-09T05:36:56;10.10;;;9.20;;
14358;SDS011;7263;49.418;11.064;2023-04-09T05:39:31;9.07;;;8.10;;
14358;SDS011;7263;49.418;11.064;2023-04-09T05:42:00;8.50;;;7.70;;
14358;SDS011;7263;49.418;11.064;2023-04-09T05:44:30;9.27;;;7.97;;
14358;SDS011;7263;49.418;11.064;2023-04-09T05:46:57;7.93;;;7.23;;
14358;SDS011;7263;49.418;11.064;2023-04-09T05:49:34;7.40;;;6.70;;
14358;SDS011;7263;49.418;11.064;2023-04-09T05:52:00;7.47;;;6.60;;
14358;SDS011;7263;49.418;11.064;2023-04-09T05:54:30;8.33;;;7.40;;
14358;SDS011;7263;49.418;11.064;2023-04-09T05:57:00;7.43;;;6.80;;
14358;SDS011;7263;49.418;11.064;2023-04-09T05:59:30;7.70;;;7.00;;
14358;SDS011;7263;49.418;11.064;2023-04-09T06:01:56;7.43;;;6.73;;
14358;SDS011;7263;49.418;11.064;2023-04-09T06:04:27;7.00;;;6.40;;
14358;SDS011;7263;49.418;11.064;2023-04-09T06:06:58;7.10;;;6.50;;
14358;SDS011;7263;49.418;11.064;2023-04-09T06:09:25;7.83;;;7.03;;
14358;SDS011;7263;49.418;11.064;2023-04-09T06:11:52;8.20;;;7.40;;
14358;SDS011;7263;49.418;11.064;2023-04-09T06:14:24;9.00;;;7.80;;
14358;SDS011;7263;49.418;11.064;2023-04-09T06:16:53;10.43;;;9.37;;
14358;SDS011;7263;49.418;11.064;2023-04-09T06:19:23;12.17;;;10.80;;
14358;SDS011;7263;49.418;11.064;2023-04-09T06:21:49;11.07;;;9.87;;
14358;SDS011;7263;49.418;11.064;2023-04-09T06:24:21;7.97;;;7.17;;
14358;SDS011;7263;49.418;11.064;2023-04-09T06:26:51;8.43;;;7.30;;
14358;SDS011;7263;49.418;11.064;2023-04-09T06:29:21;8.20;;;7.40;;
14358;SDS011;7263;49.418;11.064;2023-04-09T06:31:47;9.83;;;8.83;;
14358;SDS011;7263;49.418;11.064;2023-04-09T06:34:18;9.60;;;8.70;;
14358;SDS011;7263;49.418;11.064;2023-04-09T06:36:45;10.17;;;8.97;;
14358;SDS011;7263;49.418;11.064;2023-04-09T06:39:12;9.33;;;8.43;;
14358;SDS011;7263;49.418;11.064;2023-04-09T06:41:45;13.63;;;12.23;;
14358;SDS011;7263;49.418;11.064;2023-04-09T06:44:21;10.83;;;9.70;;
14358;SDS011;7263;49.418;11.064;2023-04-09T06:47:02;20.43;;;18.37;;
14358;SDS011;7263;49.418;11.064;2023-04-09T06:49:32;9.63;;;8.73;;
14358;SDS011;7263;49.418;11.064;2023-04-09T06:51:59;9.17;;;8.27;;
14358;SDS011;7263;49.418;11.064;2023-04-09T06:54:29;9.90;;;8.90;;
14358;SDS011;7263;49.418;11.064;2023-04-09T06:56:59;9.80;;;8.90;;
14358;SDS011;7263;49.418;11.064;2023-04-09T06:59:33;10.17;;;9.23;;
14358;SDS011;7263;49.418;11.064;2023-04-09T07:02:00;9.47;;;8.57;;
14358;SDS011;7263;49.418;11.064;2023-04-09T07:04:27;11.27;;;10.17;;
14358;SDS011;7263;49.418;11.064;2023-04-09T07:06:53;15.23;;;13.67;;
14358;SDS011;7263;49.418;11.064;2023-04-09T07:09:23;18.90;;;16.90;;
14358;SDS011;7263;49.418;11.064;2023-04-09T07:11:50;11.27;;;9.97;;
14358;SDS011;7263;49.418;11.064;2023-04-09T07:14:34;10.20;;;9.20;;
14358;SDS011;7263;49.418;11.064;2023-04-09T07:17:00;12.53;;;11.30;;
14358;SDS011;7263;49.418;11.064;2023-04-09T07:19:27;11.87;;;10.73;;
14358;SDS011;7263;49.418;11.064;2023-04-09T07:21:57;10.50;;;9.50;;
14358;SDS011;7263;49.418;11.064;2023-04-09T07:24:29;10.27;;;9.33;;
14358;SDS011;7263;49.418;11.064;2023-04-09T07:27:10;10.67;;;9.50;;
14358;SDS011;7263;49.418;11.064;2023-04-09T07:29:43;9.70;;;8.80;;
14358;SDS011;7263;49.418;11.064;2023-04-09T07:32:10;12.33;;;11.13;;
14358;SDS011;7263;49.418;11.064;2023-04-09T07:34:44;11.13;;;10.03;;
14358;SDS011;7263;49.418;11.064;2023-04-09T07:37:21;11.67;;;10.57;;
14358;SDS011;7263;49.418;11.064;2023-04-09T07:39:50;10.97;;;9.87;;
14358;SDS011;7263;49.418;11.064;2023-04-09T07:42:19;10.70;;;9.70;;
14358;SDS011;7263;49.418;11.064;2023-04-09T07:44:47;9.90;;;8.90;;
14358;SDS011;7263;49.418;11.064;2023-04-09T07:47:17;10.63;;;9.63;;
14358;SDS011;7263;49.418;11.064;2023-04-09T07:49:44;11.00;;;9.90;;
14358;SDS011;7263;49.418;11.064;2023-04-09T07:52:11;11.43;;;10.23;;
14358;SDS011;7263;49.418;11.064;2023-04-09T07:54:38;11.60;;;9.77;;
14358;SDS011;7263;49.418;11.064;2023-04-09T07:59:56;10.30;;;9.40;;
14358;SDS011;7263;49.418;11.064;2023-04-09T08:02:23;9.90;;;8.93;;
14358;SDS011;7263;49.418;11.064;2023-04-09T08:04:52;10.60;;;9.50;;
14358;SDS011;7263;49.418;11.064;2023-04-09T08:07:21;10.50;;;9.40;;
14358;SDS011;7263;49.418;11.064;2023-04-09T08:09:48;9.80;;;8.90;;
14358;SDS011;7263;49.418;11.064;2023-04-09T08:12:22;9.70;;;8.83;;
14358;SDS011;7263;49.418;11.064;2023-04-09T08:14:51;10.37;;;9.37;;
14358;SDS011;7263;49.418;11.064;2023-04-09T08:17:28;10.50;;;9.27;;
14358;SDS011;7263;49.418;11.064;2023-04-09T08:19:58;9.83;;;8.83;;
14358;SDS011;7263;49.418;11.064;2023-04-09T08:24:52;9.63;;;8.67;;
14358;SDS011;7263;49.418;11.064;2023-04-09T08:27:19;10.63;;;9.63;;
14358;SDS011;7263;49.418;11.064;2023-04-09T08:29:53;10.73;;;8.90;;
14358;SDS011;7263;49.418;11.064;2023-04-09T08:32:22;9.40;;;8.50;;
14358;SDS011;7263;49.418;11.064;2023-04-09T08:34:49;10.32;;;9.32;;
14358;SDS011;7263;49.418;11.064;2023-04-09T08:37:16;9.35;;;8.45;;
14358;SDS011;7263;49.418;11.064;2023-04-09T08:39:45;9.97;;;9.07;;
14358;SDS011;7263;49.418;11.064;2023-04-09T08:42:14;10.40;;;9.40;;
14358;SDS011;7263;49.418;11.064;2023-04-09T08:44:41;9.55;;;8.65;;
14358;SDS011;7263;49.418;11.064;2023-04-09T08:47:09;9.73;;;8.82;;
14358;SDS011;7263;49.418;11.064;2023-04-09T08:49:39;9.38;;;8.48;;
14358;SDS011;7263;49.418;11.064;2023-04-09T08:52:05;9.45;;;8.55;;
14358;SDS011;7263;49.418;11.064;2023-04-09T08:54:35;9.40;;;8.50;;
14358;SDS011;7263;49.418;11.064;2023-04-09T08:57:05;9.48;;;8.57;;
14358;SDS011;7263;49.418;11.064;2023-04-09T08:59:32;9.95;;;8.98;;
14358;SDS011;7263;49.418;11.064;2023-04-09T09:02:08;10.30;;;9.30;;
14358;SDS011;7263;49.418;11.064;2023-04-09T09:04:45;9.80;;;8.77;;
14358;SDS011;7263;49.418;11.064;2023-04-09T09:07:13;9.75;;;8.85;;
14358;SDS011;7263;49.418;11.064;2023-04-09T09:09:50;10.10;;;9.10;;
14358;SDS011;7263;49.418;11.064;2023-04-09T09:12:34;8.77;;;7.90;;
14358;SDS011;7263;49.418;11.064;2023-04-09T09:15:02;9.43;;;8.52;;
14358;SDS011;7263;49.418;11.064;2023-04-09T09:17:30;9.65;;;8.70;;
14358;SDS011;7263;49.418;11.064;2023-04-09T09:20:17;9.68;;;8.70;;
14358;SDS011;7263;49.418;11.064;2023-04-09T09:22:47;10.05;;;9.07;;
14358;SDS011;7263;49.418;11.064;2023-04-09T09:25:15;10.30;;;9.30;;
14358;SDS011;7263;49.418;11.064;2023-04-09T09:27:42;10.38;;;9.27;;
14358;SDS011;7263;49.418;11.064;2023-04-09T09:30:09;9.40;;;8.47;;
14358;SDS011;7263;49.418;11.064;2023-04-09T09:33:03;10.10;;;9.15;;
14358;SDS011;7263;49.418;11.064;2023-04-09T09:35:42;10.27;;;9.27;;
14358;SDS011;7263;49.418;11.064;2023-04-09T09:38:13;9.18;;;8.27;;
14358;SDS011;7263;49.418;11.064;2023-04-09T09:40:52;9.15;;;8.25;;
14358;SDS011;7263;49.418;11.064;2023-04-09T09:43:19;8.93;;;8.02;;
14358;SDS011;7263;49.418;11.064;2023-04-09T09:45:51;9.80;;;8.90;;
14358;SDS011;7263;49.418;11.064;2023-04-09T09:48:26;9.38;;;8.48;;
14358;SDS011;7263;49.418;11.064;2023-04-09T09:51:01;10.35;;;9.35;;
14358;SDS011;7263;49.418;11.064;2023-04-09T09:53:43;9.27;;;8.38;;
14358;SDS011;7263;49.418;11.064;2023-04-09T09:56:20;7.68;;;6.90;;
14358;SDS011;7263;49.418;11.064;2023-04-09T09:58:51;8.38;;;7.57;;
14358;SDS011;7263;49.418;11.064;2023-04-09T10:01:25;8.13;;;7.32;;
14358;SDS011;7263;49.418;11.064;2023-04-09T10:03:55;8.73;;;7.93;;
14358;SDS011;7263;49.418;11.064;2023-04-09T10:06:39;8.63;;;7.82;;
14358;SDS011;7263;49.418;11.064;2023-04-09T10:09:09;9.27;;;8.40;;
14358;SDS011;7263;49.418;11.064;2023-04-09T10:11:51;9.15;;;8.25;;
14358;SDS011;7263;49.418;11.064;2023-04-09T10:14:22;9.40;;;8.50;;
14358;SDS011;7263;49.418;11.064;2023-04-09T10:16:50;8.83;;;7.97;;
14358;SDS011;7263;49.418;11.064;2023-04-09T10:19:23;9.27;;;8.37;;
14358;SDS011;7263;49.418;11.064;2023-04-09T10:21:52;8.77;;;7.93;;
14358;SDS011;7263;49.418;11.064;2023-04-09T10:24:34;8.43;;;7.63;;
14358;SDS011;7263;49.418;11.064;2023-04-09T10:27:08;8.43;;;7.60;;
14358;SDS011;7263;49.418;11.064;2023-04-09T10:29:41;8.23;;;7.43;;
14358;SDS011;7263;49.418;11.064;2023-04-09T10:32:12;6.93;;;6.23;;
14358;SDS011;7263;49.418;11.064;2023-04-09T10:34:45;7.90;;;6.80;;
14358;SDS011;7263;49.418;11.064;2023-04-09T10:37:20;7.10;;;6.43;;
14358;SDS011;7263;49.418;11.064;2023-04-09T10:39:54;6.93;;;6.23;;
14358;SDS011;7263;49.418;11.064;2023-04-09T10:42:29;6.80;;;5.80;;
14358;SDS011;7263;49.418;11.064;2023-04-09T10:45:07;7.00;;;6.30;;
14358;SDS011;7263;49.418;11.064;2023-04-09T10:47:35;7.13;;;6.43;;
14358;SDS011;7263;49.418;11.064;2023-04-09T10:50:16;6.40;;;5.73;;
14358;SDS011;7263;49.418;11.064;2023-04-09T10:52:51;6.30;;;5.47;;
14358;SDS011;7263;49.418;11.064;2023-04-09T10:55:36;6.60;;;6.00;;
14358;SDS011;7263;49.418;11.064;2023-04-09T10:58:06;6.13;;;5.53;;
14358;SDS011;7263;49.418;11.064;2023-04-09T11:00:37;5.57;;;5.07;;
14358;SDS011;7263;49.418;11.064;2023-04-09T11:03:12;5.00;;;4.50;;
14358;SDS011;7263;49.418;11.064;2023-04-09T11:06:00;5.40;;;4.60;;
14358;SDS011;7263;49.418;11.064;2023-04-09T11:08:38;5.47;;;4.97;;
14358;SDS011;7263;49.418;11.064;2023-04-09T11:11:07;5.57;;;5.07;;
14358;SDS011;7263;49.418;11.064;2023-04-09T11:13:42;5.70;;;4.50;;
14358;SDS011;7263;49.418;11.064;2023-04-09T11:16:14;5.37;;;4.60;;
14358;SDS011;7263;49.418;11.064;2023-04-09T11:18:46;6.30;;;5.50;;
14358;SDS011;7263;49.418;11.064;2023-04-09T11:21:20;5.67;;;5.03;;
14358;SDS011;7263;49.418;11.064;2023-04-09T11:23:55;4.70;;;4.30;;
14358;SDS011;7263;49.418;11.064;2023-04-09T11:26:22;5.47;;;4.97;;
14358;SDS011;7263;49.418;11.064;2023-04-09T11:28:54;4.83;;;4.43;;
14358;SDS011;7263;49.418;11.064;2023-04-09T11:31:25;5.07;;;4.40;;
14358;SDS011;7263;49.418;11.064;2023-04-09T11:33:56;5.03;;;4.53;;
14358;SDS011;7263;49.418;11.064;2023-04-09T11:36:23;4.53;;;4.13;;
14358;SDS011;7263;49.418;11.064;2023-04-09T11:38:55;4.05;;;3.75;;
14358;SDS011;7263;49.418;11.064;2023-04-09T11:41:31;4.57;;;4.15;;
14358;SDS011;7263;49.418;11.064;2023-04-09T11:44:27;6.43;;;5.82;;
14358;SDS011;7263;49.418;11.064;2023-04-09T11:47:00;5.32;;;4.82;;
14358;SDS011;7263;49.418;11.064;2023-04-09T11:49:27;4.60;;;4.20;;
14358;SDS011;7263;49.418;11.064;2023-04-09T11:52:02;5.50;;;4.95;;
14358;SDS011;7263;49.418;11.064;2023-04-09T11:54:34;5.80;;;5.20;;
14358;SDS011;7263;49.418;11.064;2023-04-09T11:57:03;5.25;;;4.72;;
14358;SDS011;7263;49.418;11.064;2023-04-09T11:59:44;5.50;;;5.00;;
14358;SDS011;7263;49.418;11.064;2023-04-09T12:02:22;5.30;;;4.80;;
14358;SDS011;7263;49.418;11.064;2023-04-09T12:05:01;5.43;;;4.70;;
14358;SDS011;7263;49.418;11.064;2023-04-09T12:07:30;4.65;;;4.25;;
14358;SDS011;7263;49.418;11.064;2023-04-09T12:10:03;5.05;;;4.63;;
14358;SDS011;7263;49.418;11.064;2023-04-09T12:12:43;4.57;;;4.18;;
14358;SDS011;7263;49.418;11.064;2023-04-09T12:15:16;5.03;;;4.53;;
14358;SDS011;7263;49.418;11.064;2023-04-09T12:18:01;4.57;;;4.18;;
14358;SDS011;7263;49.418;11.064;2023-04-09T12:20:37;4.55;;;4.15;;
14358;SDS011;7263;49.418;11.064;2023-04-09T12:23:11;4.50;;;4.10;;
14358;SDS011;7263;49.418;11.064;2023-04-09T12:25:42;5.32;;;4.82;;
14358;SDS011;7263;49.418;11.064;2023-04-09T12:28:13;5.70;;;5.20;;
14358;SDS011;7263;49.418;11.064;2023-04-09T12:30:42;5.10;;;4.03;;
14358;SDS011;7263;49.418;11.064;2023-04-09T12:33:09;4.20;;;3.80;;
14358;SDS011;7263;49.418;11.064;2023-04-09T12:35:38;5.03;;;4.50;;
14358;SDS011;7263;49.418;11.064;2023-04-09T12:38:11;4.80;;;4.40;;
14358;SDS011;7263;49.418;11.064;2023-04-09T12:40:39;5.80;;;5.20;;
14358;SDS011;7263;49.418;11.064;2023-04-09T12:43:08;5.50;;;4.93;;
14358;SDS011;7263;49.418;11.064;2023-04-09T12:45:37;5.40;;;4.90;;
14358;SDS011;7263;49.418;11.064;2023-04-09T12:48:04;4.80;;;4.40;;
14358;SDS011;7263;49.418;11.064;2023-04-09T12:50:31;4.17;;;3.77;;
14358;SDS011;7263;49.418;11.064;2023-04-09T12:53:01;4.97;;;4.47;;
14358;SDS011;7263;49.418;11.064;2023-04-09T12:55:27;4.70;;;4.30;;
14358;SDS011;7263;49.418;11.064;2023-04-09T12:58:10;5.00;;;4.50;;
14358;SDS011;7263;49.418;11.064;2023-04-09T13:00:37;4.87;;;4.47;;
14358;SDS011;7263;49.418;11.064;2023-04-09T13:03:04;5.37;;;4.57;;
14358;SDS011;7263;49.418;11.064;2023-04-09T13:05:33;5.70;;;4.30;;
14358;SDS011;7263;49.418;11.064;2023-04-09T13:08:05;4.50;;;4.10;;
14358;SDS011;7263;49.418;11.064;2023-04-09T13:10:35;5.13;;;4.63;;
14358;SDS011;7263;49.418;11.064;2023-04-09T13:13:06;5.03;;;4.63;;
14358;SDS011;7263;49.418;11.064;2023-04-09T13:15:36;5.30;;;4.80;;
14358;SDS011;7263;49.418;11.064;2023-04-09T13:18:03;6.03;;;5.30;;
14358;SDS011;7263;49.418;11.064;2023-04-09T13:20:32;5.20;;;4.70;;
14358;SDS011;7263;49.418;11.064;2023-04-09T13:23:05;5.03;;;4.53;;
14358;SDS011;7263;49.418;11.064;2023-04-09T13:25:36;4.80;;;4.40;;
14358;SDS011;7263;49.418;11.064;2023-04-09T13:28:03;5.30;;;4.80;;
14358;SDS011;7263;49.418;11.064;2023-04-09T13:30:38;4.47;;;4.07;;
14358;SDS011;7263;49.418;11.064;2023-04-09T13:33:07;5.83;;;5.23;;
14358;SDS011;7263;49.418;11.064;2023-04-09T13:35:37;22.37;;;20.00;;
14358;SDS011;7263;49.418;11.064;2023-04-09T13:38:16;6.50;;;5.90;;
14358;SDS011;7263;49.418;11.064;2023-04-09T13:40:46;6.47;;;5.87;;
14358;SDS011;7263;49.418;11.064;2023-04-09T13:43:13;5.60;;;5.10;;
14358;SDS011;7263;49.418;11.064;2023-04-09T13:45:44;4.90;;;4.50;;
14358;SDS011;7263;49.418;11.064;2023-04-09T13:48:13;5.50;;;5.00;;
14358;SDS011;7263;49.418;11.064;2023-04-09T13:50:40;5.07;;;4.67;;
14358;SDS011;7263;49.418;11.064;2023-04-09T13:53:09;4.67;;;4.17;;
14358;SDS011;7263;49.418;11.064;2023-04-09T13:55:39;4.97;;;4.50;;
14358;SDS011;7263;49.418;11.064;2023-04-09T13:58:12;4.80;;;4.40;;
14358;SDS011;7263;49.418;11.064;2023-04-09T14:00:45;4.60;;;4.20;;
14358;SDS011;7263;49.418;11.064;2023-04-09T14:03:13;4.80;;;4.40;;
14358;SDS011;7263;49.418;11.064;2023-04-09T14:05:40;5.40;;;4.27;;
14358;SDS011;7263;49.418;11.064;2023-04-09T14:08:12;4.77;;;4.37;;
14358;SDS011;7263;49.418;11.064;2023-04-09T14:10:41;4.63;;;4.23;;
14358;SDS011;7263;49.418;11.064;2023-04-09T14:13:09;4.90;;;4.40;;
14358;SDS011;7263;49.418;11.064;2023-04-09T14:15:47;5.57;;;5.07;;
14358;SDS011;7263;49.418;11.064;2023-04-09T14:18:25;5.33;;;4.83;;
14358;SDS011;7263;49.418;11.064;2023-04-09T14:21:06;5.83;;;5.33;;
14358;SDS011;7263;49.418;11.064;2023-04-09T14:23:33;5.80;;;5.20;;
14358;SDS011;7263;49.418;11.064;2023-04-09T14:26:04;5.50;;;5.00;;
14358;SDS011;7263;49.418;11.064;2023-04-09T14:28:39;6.27;;;5.67;;
14358;SDS011;7263;49.418;11.064;2023-04-09T14:31:13;6.00;;;5.40;;
14358;SDS011;7263;49.418;11.064;2023-04-09T14:33:44;6.47;;;5.77;;
14358;SDS011;7263;49.418;11.064;2023-04-09T14:36:28;11.30;;;10.23;;
14358;SDS011;7263;49.418;11.064;2023-04-09T14:39:01;5.50;;;5.00;;
14358;SDS011;7263;49.418;11.064;2023-04-09T14:41:27;6.33;;;5.70;;
14358;SDS011;7263;49.418;11.064;2023-04-09T14:43:58;5.23;;;4.73;;
14358;SDS011;7263;49.418;11.064;2023-04-09T14:46:31;6.10;;;5.50;;
14358;SDS011;7263;49.418;11.064;2023-04-09T14:49:00;5.30;;;4.80;;
14358;SDS011;7263;49.418;11.064;2023-04-09T14:51:32;5.67;;;5.07;;
14358;SDS011;7263;49.418;11.064;2023-04-09T14:53:59;5.20;;;4.70;;
14358;SDS011;7263;49.418;11.064;2023-04-09T14:56:26;4.57;;;4.17;;
14358;SDS011;7263;49.418;11.064;2023-04-09T14:58:59;4.90;;;4.40;;
14358;SDS011;7263;49.418;11.064;2023-04-09T15:01:26;4.77;;;4.37;;
14358;SDS011;7263;49.418;11.064;2023-04-09T15:04:07;4.37;;;3.97;;
14358;SDS011;7263;49.418;11.064;2023-04-09T15:06:36;4.67;;;4.27;;
14358;SDS011;7263;49.418;11.064;2023-04-09T15:09:12;4.63;;;4.23;;
14358;SDS011;7263;49.418;11.064;2023-04-09T15:11:48;5.30;;;4.80;;